sensor_id;sensor_type;location;lat;lon;timestamp;P1;durP1;ratioP1;P2;durP2;ratioP2
7833;SDS011;3962;42.696;23.354;2024-03-08T00:00:11;14.47;;;13.87;;
7833;SDS011;3962;42.696;23.354;2024-03-08T00:02:39;15.40;;;14.73;;
7833;SDS011;3962;42.696;23.354;2024-03-08T00:05:06;14.90;;;14.13;;
7833;SDS011;3962;42.696;23.354;2024-03-08T00:07:35;14.90;;;14.30;;
7833;SDS011;3962;42.696;23.354;2024-03-08T00:10:02;15.00;;;14.40;;
7833;SDS011;3962;42.696;23.354;2024-03-08T00:12:29;16.27;;;15.57;;
7833;SDS011;3962;42.696;23.354;2024-03-08T00:14:56;14.10;;;13.50;;
7833;SDS011;3962;42.696;23.354;2024-03-08T00:17:24;14.60;;;14.00;;
7833;SDS011;3962;42.696;23.354;2024-03-08T00:19:52;15.90;;;15.20;;
7833;SDS011;3962;42.696;23.354;2024-03-08T00:22:19;14.30;;;13.70;;
7833;SDS011;3962;42.696;23.354;2024-03-08T00:24:48;13.83;;;13.23;;
7833;SDS011;3962;42.696;23.354;2024-03-08T00:27:15;14.00;;;13.40;;
7833;SDS011;3962;42.696;23.354;2024-03-08T00:29:43;13.83;;;13.23;;
7833;SDS011;3962;42.696;23.354;2024-03-08T00:32:10;13.87;;;13.27;;
7833;SDS011;3962;42.696;23.354;2024-03-08T00:34:37;13.73;;;13.13;;
7833;SDS011;3962;42.696;23.354;2024-03-08T00:37:04;13.27;;;12.67;;
7833;SDS011;3962;42.696;23.354;2024-03-08T00:39:31;14.53;;;13.93;;
7833;SDS011;3962;42.696;23.354;2024-03-08T00:41:59;14.40;;;13.80;;
7833;SDS011;3962;42.696;23.354;2024-03-08T00:44:26;15.70;;;15.00;;
7833;SDS011;3962;42.696;23.354;2024-03-08T00:46:53;15.27;;;14.67;;
7833;SDS011;3962;42.696;23.354;2024-03-08T00:49:20;14.43;;;13.83;;
7833;SDS011;3962;42.696;23.354;2024-03-08T00:51:48;13.60;;;13.00;;
7833;SDS011;3962;42.696;23.354;2024-03-08T00:54:14;15.93;;;15.23;;
7833;SDS011;3962;42.696;23.354;2024-03-08T00:56:41;13.17;;;12.60;;
7833;SDS011;3962;42.696;23.354;2024-03-08T00:59:09;16.10;;;15.40;;
7833;SDS011;3962;42.696;23.354;2024-03-08T01:04:42;15.20;;;14.57;;
7833;SDS011;3962;42.696;23.354;2024-03-08T01:07:09;15.73;;;15.03;;
7833;SDS011;3962;42.696;23.354;2024-03-08T01:09:35;14.97;;;14.37;;
7833;SDS011;3962;42.696;23.354;2024-03-08T01:12:02;15.07;;;14.47;;
7833;SDS011;3962;42.696;23.354;2024-03-08T01:14:31;13.43;;;12.83;;
7833;SDS011;3962;42.696;23.354;2024-03-08T01:16:58;14.30;;;13.70;;
7833;SDS011;3962;42.696;23.354;2024-03-08T01:19:25;15.43;;;14.77;;
7833;SDS011;3962;42.696;23.354;2024-03-08T01:21:52;14.93;;;14.33;;
7833;SDS011;3962;42.696;23.354;2024-03-08T01:24:20;14.33;;;13.73;;
7833;SDS011;3962;42.696;23.354;2024-03-08T01:26:48;15.17;;;14.57;;
7833;SDS011;3962;42.696;23.354;2024-03-08T01:29:15;15.17;;;14.50;;
7833;SDS011;3962;42.696;23.354;2024-03-08T01:31:43;14.63;;;14.03;;
7833;SDS011;3962;42.696;23.354;2024-03-08T01:34:10;15.43;;;14.73;;
7833;SDS011;3962;42.696;23.354;2024-03-08T01:36:37;14.27;;;13.67;;
7833;SDS011;3962;42.696;23.354;2024-03-08T01:39:04;15.47;;;14.77;;
7833;SDS011;3962;42.696;23.354;2024-03-08T01:41:33;15.73;;;15.03;;
7833;SDS011;3962;42.696;23.354;2024-03-08T01:44:00;16.10;;;15.40;;
7833;SDS011;3962;42.696;23.354;2024-03-08T01:46:27;14.20;;;13.60;;
7833;SDS011;3962;42.696;23.354;2024-03-08T01:48:58;15.70;;;15.00;;
7833;SDS011;3962;42.696;23.354;2024-03-08T01:51:26;15.70;;;15.00;;
7833;SDS011;3962;42.696;23.354;2024-03-08T01:53:54;16.20;;;15.50;;
7833;SDS011;3962;42.696;23.354;2024-03-08T01:56:23;16.20;;;15.50;;
7833;SDS011;3962;42.696;23.354;2024-03-08T01:58:51;15.70;;;15.00;;
7833;SDS011;3962;42.696;23.354;2024-03-08T02:01:18;14.70;;;14.10;;
7833;SDS011;3962;42.696;23.354;2024-03-08T02:03:45;14.93;;;14.33;;
7833;SDS011;3962;42.696;23.354;2024-03-08T02:06:13;15.17;;;14.57;;
7833;SDS011;3962;42.696;23.354;2024-03-08T02:08:43;15.37;;;14.67;;
7833;SDS011;3962;42.696;23.354;2024-03-08T02:11:11;14.67;;;14.07;;
7833;SDS011;3962;42.696;23.354;2024-03-08T02:13:39;15.10;;;14.50;;
7833;SDS011;3962;42.696;23.354;2024-03-08T02:16:06;13.70;;;13.10;;
7833;SDS011;3962;42.696;23.354;2024-03-08T02:18:33;13.87;;;13.27;;
7833;SDS011;3962;42.696;23.354;2024-03-08T02:21:02;13.37;;;12.77;;
7833;SDS011;3962;42.696;23.354;2024-03-08T02:23:31;12.87;;;12.37;;
7833;SDS011;3962;42.696;23.354;2024-03-08T02:26:10;14.37;;;13.77;;
7833;SDS011;3962;42.696;23.354;2024-03-08T02:28:36;14.57;;;13.97;;
7833;SDS011;3962;42.696;23.354;2024-03-08T02:31:04;16.47;;;15.77;;
7833;SDS011;3962;42.696;23.354;2024-03-08T02:33:33;14.37;;;13.77;;
7833;SDS011;3962;42.696;23.354;2024-03-08T02:36:01;14.93;;;14.33;;
7833;SDS011;3962;42.696;23.354;2024-03-08T02:38:29;14.13;;;13.53;;
7833;SDS011;3962;42.696;23.354;2024-03-08T02:40:56;13.23;;;12.67;;
7833;SDS011;3962;42.696;23.354;2024-03-08T02:43:23;13.50;;;12.90;;
7833;SDS011;3962;42.696;23.354;2024-03-08T02:45:50;14.23;;;13.63;;
7833;SDS011;3962;42.696;23.354;2024-03-08T02:48:18;15.90;;;15.20;;
7833;SDS011;3962;42.696;23.354;2024-03-08T02:50:58;13.67;;;13.07;;
7833;SDS011;3962;42.696;23.354;2024-03-08T02:53:28;15.17;;;14.57;;
7833;SDS011;3962;42.696;23.354;2024-03-08T02:55:55;16.70;;;16.00;;
7833;SDS011;3962;42.696;23.354;2024-03-08T02:58:22;16.77;;;16.07;;
7833;SDS011;3962;42.696;23.354;2024-03-08T03:00:49;15.80;;;15.10;;
7833;SDS011;3962;42.696;23.354;2024-03-08T03:06:37;16.77;;;16.07;;
7833;SDS011;3962;42.696;23.354;2024-03-08T03:09:05;16.87;;;16.17;;
7833;SDS011;3962;42.696;23.354;2024-03-08T03:11:35;15.80;;;15.10;;
7833;SDS011;3962;42.696;23.354;2024-03-08T03:14:02;15.10;;;14.50;;
7833;SDS011;3962;42.696;23.354;2024-03-08T03:16:29;15.37;;;14.70;;
7833;SDS011;3962;42.696;23.354;2024-03-08T03:18:56;16.97;;;16.27;;
7833;SDS011;3962;42.696;23.354;2024-03-08T03:21:24;15.93;;;15.23;;
7833;SDS011;3962;42.696;23.354;2024-03-08T03:23:50;16.33;;;15.63;;
7833;SDS011;3962;42.696;23.354;2024-03-08T03:26:19;15.30;;;14.63;;
7833;SDS011;3962;42.696;23.354;2024-03-08T03:28:47;14.90;;;14.27;;
7833;SDS011;3962;42.696;23.354;2024-03-08T03:31:13;16.23;;;15.53;;
7833;SDS011;3962;42.696;23.354;2024-03-08T03:33:40;16.63;;;15.93;;
7833;SDS011;3962;42.696;23.354;2024-03-08T03:36:07;16.07;;;15.37;;
7833;SDS011;3962;42.696;23.354;2024-03-08T03:38:35;15.43;;;14.73;;
7833;SDS011;3962;42.696;23.354;2024-03-08T03:41:01;13.53;;;12.93;;
7833;SDS011;3962;42.696;23.354;2024-03-08T03:43:36;15.50;;;14.80;;
7833;SDS011;3962;42.696;23.354;2024-03-08T03:46:05;15.97;;;15.27;;
7833;SDS011;3962;42.696;23.354;2024-03-08T03:48:32;16.43;;;15.73;;
7833;SDS011;3962;42.696;23.354;2024-03-08T03:50:59;16.00;;;15.30;;
7833;SDS011;3962;42.696;23.354;2024-03-08T03:53:26;15.00;;;14.37;;
7833;SDS011;3962;42.696;23.354;2024-03-08T03:55:52;15.90;;;15.20;;
7833;SDS011;3962;42.696;23.354;2024-03-08T03:58:19;17.13;;;16.43;;
7833;SDS011;3962;42.696;23.354;2024-03-08T04:00:49;15.93;;;15.23;;
7833;SDS011;3962;42.696;23.354;2024-03-08T04:03:15;16.20;;;15.50;;
7833;SDS011;3962;42.696;23.354;2024-03-08T04:05:43;15.30;;;14.67;;
7833;SDS011;3962;42.696;23.354;2024-03-08T04:08:19;14.60;;;14.00;;
7833;SDS011;3962;42.696;23.354;2024-03-08T04:10:46;15.63;;;14.93;;
7833;SDS011;3962;42.696;23.354;2024-03-08T04:13:13;14.80;;;14.20;;
7833;SDS011;3962;42.696;23.354;2024-03-08T04:15:40;16.10;;;15.40;;
7833;SDS011;3962;42.696;23.354;2024-03-08T04:18:10;14.40;;;13.80;;
7833;SDS011;3962;42.696;23.354;2024-03-08T04:20:37;15.43;;;14.73;;
7833;SDS011;3962;42.696;23.354;2024-03-08T04:23:05;14.67;;;14.07;;
7833;SDS011;3962;42.696;23.354;2024-03-08T04:25:32;13.50;;;12.90;;
7833;SDS011;3962;42.696;23.354;2024-03-08T04:28:35;17.10;;;16.37;;
7833;SDS011;3962;42.696;23.354;2024-03-08T04:34:23;15.20;;;14.60;;
7833;SDS011;3962;42.696;23.354;2024-03-08T04:36:50;16.20;;;15.50;;
7833;SDS011;3962;42.696;23.354;2024-03-08T04:39:17;15.37;;;14.67;;
7833;SDS011;3962;42.696;23.354;2024-03-08T04:41:43;15.63;;;14.93;;
7833;SDS011;3962;42.696;23.354;2024-03-08T04:44:11;16.83;;;16.10;;
7833;SDS011;3962;42.696;23.354;2024-03-08T04:46:38;16.57;;;15.87;;
7833;SDS011;3962;42.696;23.354;2024-03-08T04:49:05;14.50;;;13.90;;
7833;SDS011;3962;42.696;23.354;2024-03-08T04:51:33;14.30;;;13.70;;
7833;SDS011;3962;42.696;23.354;2024-03-08T04:54:00;15.77;;;15.07;;
7833;SDS011;3962;42.696;23.354;2024-03-08T04:56:27;14.87;;;14.27;;
7833;SDS011;3962;42.696;23.354;2024-03-08T04:58:54;14.80;;;14.10;;
7833;SDS011;3962;42.696;23.354;2024-03-08T05:01:20;15.13;;;14.50;;
7833;SDS011;3962;42.696;23.354;2024-03-08T05:03:47;15.20;;;14.53;;
7833;SDS011;3962;42.696;23.354;2024-03-08T05:06:15;16.50;;;15.80;;
7833;SDS011;3962;42.696;23.354;2024-03-08T05:08:43;16.03;;;15.33;;
7833;SDS011;3962;42.696;23.354;2024-03-08T05:11:11;15.97;;;15.27;;
7833;SDS011;3962;42.696;23.354;2024-03-08T05:13:39;14.37;;;13.77;;
7833;SDS011;3962;42.696;23.354;2024-03-08T05:16:06;14.70;;;14.10;;
7833;SDS011;3962;42.696;23.354;2024-03-08T05:18:34;15.63;;;14.93;;
7833;SDS011;3962;42.696;23.354;2024-03-08T05:21:02;14.67;;;14.07;;
7833;SDS011;3962;42.696;23.354;2024-03-08T05:23:29;16.83;;;16.13;;
7833;SDS011;3962;42.696;23.354;2024-03-08T05:25:57;15.87;;;15.17;;
7833;SDS011;3962;42.696;23.354;2024-03-08T05:28:24;16.53;;;15.83;;
7833;SDS011;3962;42.696;23.354;2024-03-08T05:30:51;17.47;;;16.67;;
7833;SDS011;3962;42.696;23.354;2024-03-08T05:33:24;17.33;;;16.63;;
7833;SDS011;3962;42.696;23.354;2024-03-08T05:35:51;16.47;;;15.77;;
7833;SDS011;3962;42.696;23.354;2024-03-08T05:38:19;16.77;;;16.07;;
7833;SDS011;3962;42.696;23.354;2024-03-08T05:40:46;18.30;;;17.43;;
7833;SDS011;3962;42.696;23.354;2024-03-08T05:43:14;16.50;;;15.80;;
7833;SDS011;3962;42.696;23.354;2024-03-08T05:45:42;17.07;;;16.37;;
7833;SDS011;3962;42.696;23.354;2024-03-08T05:48:09;17.10;;;16.40;;
7833;SDS011;3962;42.696;23.354;2024-03-08T05:50:37;18.30;;;17.50;;
7833;SDS011;3962;42.696;23.354;2024-03-08T05:53:04;17.00;;;16.30;;
7833;SDS011;3962;42.696;23.354;2024-03-08T05:55:31;15.80;;;15.10;;
7833;SDS011;3962;42.696;23.354;2024-03-08T05:58:00;16.00;;;15.30;;
7833;SDS011;3962;42.696;23.354;2024-03-08T06:00:28;15.90;;;15.20;;
7833;SDS011;3962;42.696;23.354;2024-03-08T06:02:56;16.50;;;15.80;;
7833;SDS011;3962;42.696;23.354;2024-03-08T06:05:23;16.13;;;15.43;;
7833;SDS011;3962;42.696;23.354;2024-03-08T06:07:50;15.40;;;14.70;;
7833;SDS011;3962;42.696;23.354;2024-03-08T06:10:18;16.27;;;15.57;;
7833;SDS011;3962;42.696;23.354;2024-03-08T06:12:45;17.00;;;16.30;;
7833;SDS011;3962;42.696;23.354;2024-03-08T06:15:12;16.53;;;15.73;;
7833;SDS011;3962;42.696;23.354;2024-03-08T06:17:41;15.80;;;15.10;;
7833;SDS011;3962;42.696;23.354;2024-03-08T06:20:08;15.97;;;15.27;;
7833;SDS011;3962;42.696;23.354;2024-03-08T06:22:38;18.67;;;17.87;;
7833;SDS011;3962;42.696;23.354;2024-03-08T06:25:06;16.40;;;15.70;;
7833;SDS011;3962;42.696;23.354;2024-03-08T06:27:33;16.70;;;16.00;;
7833;SDS011;3962;42.696;23.354;2024-03-08T06:30:00;16.10;;;15.40;;
7833;SDS011;3962;42.696;23.354;2024-03-08T06:32:26;17.20;;;16.20;;
7833;SDS011;3962;42.696;23.354;2024-03-08T06:34:54;15.80;;;15.10;;
7833;SDS011;3962;42.696;23.354;2024-03-08T06:37:21;16.10;;;15.40;;
7833;SDS011;3962;42.696;23.354;2024-03-08T06:39:49;16.60;;;15.80;;
7833;SDS011;3962;42.696;23.354;2024-03-08T06:42:17;16.07;;;15.37;;
7833;SDS011;3962;42.696;23.354;2024-03-08T06:44:43;16.57;;;15.87;;
7833;SDS011;3962;42.696;23.354;2024-03-08T06:47:14;16.70;;;15.97;;
7833;SDS011;3962;42.696;23.354;2024-03-08T06:49:41;17.47;;;16.67;;
7833;SDS011;3962;42.696;23.354;2024-03-08T06:52:09;17.90;;;17.10;;
7833;SDS011;3962;42.696;23.354;2024-03-08T06:54:36;15.20;;;14.57;;
7833;SDS011;3962;42.696;23.354;2024-03-08T06:57:04;17.20;;;16.43;;
7833;SDS011;3962;42.696;23.354;2024-03-08T06:59:31;15.73;;;15.03;;
7833;SDS011;3962;42.696;23.354;2024-03-08T07:01:58;15.47;;;14.77;;
7833;SDS011;3962;42.696;23.354;2024-03-08T07:04:25;16.43;;;15.67;;
7833;SDS011;3962;42.696;23.354;2024-03-08T07:06:54;16.50;;;15.80;;
7833;SDS011;3962;42.696;23.354;2024-03-08T07:09:24;16.83;;;15.87;;
7833;SDS011;3962;42.696;23.354;2024-03-08T07:11:50;17.10;;;16.30;;
7833;SDS011;3962;42.696;23.354;2024-03-08T07:14:20;18.33;;;17.50;;
7833;SDS011;3962;42.696;23.354;2024-03-08T07:16:48;17.27;;;16.37;;
7833;SDS011;3962;42.696;23.354;2024-03-08T07:19:15;16.57;;;15.87;;
7833;SDS011;3962;42.696;23.354;2024-03-08T07:21:42;17.50;;;16.70;;
7833;SDS011;3962;42.696;23.354;2024-03-08T07:24:09;14.47;;;13.87;;
7833;SDS011;3962;42.696;23.354;2024-03-08T07:26:54;16.57;;;15.77;;
7833;SDS011;3962;42.696;23.354;2024-03-08T07:29:21;16.67;;;15.97;;
7833;SDS011;3962;42.696;23.354;2024-03-08T07:31:48;15.07;;;14.40;;
7833;SDS011;3962;42.696;23.354;2024-03-08T07:34:26;15.60;;;14.90;;
7833;SDS011;3962;42.696;23.354;2024-03-08T07:36:53;15.80;;;15.10;;
7833;SDS011;3962;42.696;23.354;2024-03-08T07:39:21;16.40;;;15.70;;
7833;SDS011;3962;42.696;23.354;2024-03-08T07:41:48;15.00;;;14.40;;
7833;SDS011;3962;42.696;23.354;2024-03-08T07:44:19;16.70;;;16.00;;
7833;SDS011;3962;42.696;23.354;2024-03-08T07:46:45;15.87;;;15.17;;
7833;SDS011;3962;42.696;23.354;2024-03-08T07:49:12;16.43;;;15.63;;
7833;SDS011;3962;42.696;23.354;2024-03-08T07:51:40;15.67;;;14.97;;
7833;SDS011;3962;42.696;23.354;2024-03-08T07:54:07;16.33;;;15.63;;
7833;SDS011;3962;42.696;23.354;2024-03-08T07:56:34;17.00;;;16.10;;
7833;SDS011;3962;42.696;23.354;2024-03-08T07:59:01;14.63;;;13.97;;
7833;SDS011;3962;42.696;23.354;2024-03-08T08:01:30;16.60;;;15.90;;
7833;SDS011;3962;42.696;23.354;2024-03-08T08:03:58;17.87;;;17.07;;
7833;SDS011;3962;42.696;23.354;2024-03-08T08:06:26;17.07;;;16.33;;
7833;SDS011;3962;42.696;23.354;2024-03-08T08:08:53;16.77;;;16.07;;
7833;SDS011;3962;42.696;23.354;2024-03-08T08:11:21;15.77;;;15.07;;
7833;SDS011;3962;42.696;23.354;2024-03-08T08:13:48;15.43;;;14.63;;
7833;SDS011;3962;42.696;23.354;2024-03-08T08:16:15;13.10;;;12.53;;
7833;SDS011;3962;42.696;23.354;2024-03-08T08:18:43;17.07;;;16.30;;
7833;SDS011;3962;42.696;23.354;2024-03-08T08:21:11;16.30;;;15.60;;
7833;SDS011;3962;42.696;23.354;2024-03-08T08:23:38;16.57;;;15.77;;
7833;SDS011;3962;42.696;23.354;2024-03-08T08:26:05;16.00;;;15.27;;
7833;SDS011;3962;42.696;23.354;2024-03-08T08:28:33;16.20;;;15.40;;
7833;SDS011;3962;42.696;23.354;2024-03-08T08:30:59;13.97;;;13.37;;
7833;SDS011;3962;42.696;23.354;2024-03-08T08:33:26;15.07;;;14.43;;
7833;SDS011;3962;42.696;23.354;2024-03-08T08:35:54;13.50;;;12.83;;
7833;SDS011;3962;42.696;23.354;2024-03-08T08:38:21;15.17;;;14.53;;
7833;SDS011;3962;42.696;23.354;2024-03-08T08:40:48;15.63;;;14.93;;
7833;SDS011;3962;42.696;23.354;2024-03-08T08:43:15;14.47;;;13.87;;
7833;SDS011;3962;42.696;23.354;2024-03-08T08:45:42;12.73;;;12.23;;
7833;SDS011;3962;42.696;23.354;2024-03-08T08:48:09;15.13;;;14.47;;
7833;SDS011;3962;42.696;23.354;2024-03-08T08:50:36;14.40;;;13.80;;
7833;SDS011;3962;42.696;23.354;2024-03-08T08:53:06;15.30;;;14.63;;
7833;SDS011;3962;42.696;23.354;2024-03-08T08:55:33;15.00;;;14.37;;
7833;SDS011;3962;42.696;23.354;2024-03-08T08:58:01;14.53;;;13.93;;
7833;SDS011;3962;42.696;23.354;2024-03-08T09:00:28;15.00;;;14.30;;
7833;SDS011;3962;42.696;23.354;2024-03-08T09:02:56;12.53;;;12.03;;
7833;SDS011;3962;42.696;23.354;2024-03-08T09:05:24;12.77;;;12.27;;
7833;SDS011;3962;42.696;23.354;2024-03-08T09:07:51;14.03;;;13.43;;
7833;SDS011;3962;42.696;23.354;2024-03-08T09:10:20;14.07;;;13.47;;
7833;SDS011;3962;42.696;23.354;2024-03-08T09:12:47;13.47;;;12.87;;
7833;SDS011;3962;42.696;23.354;2024-03-08T09:15:14;12.13;;;11.63;;
7833;SDS011;3962;42.696;23.354;2024-03-08T09:17:43;14.97;;;14.37;;
7833;SDS011;3962;42.696;23.354;2024-03-08T09:20:10;14.10;;;13.50;;
7833;SDS011;3962;42.696;23.354;2024-03-08T09:22:40;13.47;;;12.87;;
7833;SDS011;3962;42.696;23.354;2024-03-08T09:25:07;13.63;;;13.03;;
7833;SDS011;3962;42.696;23.354;2024-03-08T09:27:36;14.00;;;13.30;;
7833;SDS011;3962;42.696;23.354;2024-03-08T09:30:05;13.10;;;12.50;;
7833;SDS011;3962;42.696;23.354;2024-03-08T09:32:33;13.90;;;13.30;;
7833;SDS011;3962;42.696;23.354;2024-03-08T09:34:59;13.33;;;12.73;;
7833;SDS011;3962;42.696;23.354;2024-03-08T09:37:26;13.83;;;13.20;;
7833;SDS011;3962;42.696;23.354;2024-03-08T09:39:53;14.13;;;13.53;;
7833;SDS011;3962;42.696;23.354;2024-03-08T09:42:20;14.63;;;13.93;;
7833;SDS011;3962;42.696;23.354;2024-03-08T09:44:48;12.90;;;12.40;;
7833;SDS011;3962;42.696;23.354;2024-03-08T09:47:16;13.10;;;12.40;;
7833;SDS011;3962;42.696;23.354;2024-03-08T09:49:45;13.00;;;12.40;;
7833;SDS011;3962;42.696;23.354;2024-03-08T09:52:12;13.00;;;12.40;;
7833;SDS011;3962;42.696;23.354;2024-03-08T09:54:39;11.73;;;11.07;;
7833;SDS011;3962;42.696;23.354;2024-03-08T09:57:09;12.27;;;11.77;;
7833;SDS011;3962;42.696;23.354;2024-03-08T09:59:37;10.50;;;10.07;;
7833;SDS011;3962;42.696;23.354;2024-03-08T10:02:17;13.57;;;12.97;;
7833;SDS011;3962;42.696;23.354;2024-03-08T10:04:44;13.30;;;12.70;;
7833;SDS011;3962;42.696;23.354;2024-03-08T10:07:12;12.57;;;11.87;;
7833;SDS011;3962;42.696;23.354;2024-03-08T10:09:39;12.17;;;11.67;;
7833;SDS011;3962;42.696;23.354;2024-03-08T10:12:12;13.63;;;13.03;;
7833;SDS011;3962;42.696;23.354;2024-03-08T10:14:39;13.83;;;13.23;;
7833;SDS011;3962;42.696;23.354;2024-03-08T10:17:07;13.33;;;12.73;;
7833;SDS011;3962;42.696;23.354;2024-03-08T10:19:35;12.57;;;12.07;;
7833;SDS011;3962;42.696;23.354;2024-03-08T10:22:02;11.80;;;11.30;;
7833;SDS011;3962;42.696;23.354;2024-03-08T10:24:30;13.50;;;12.80;;
7833;SDS011;3962;42.696;23.354;2024-03-08T10:26:59;13.87;;;13.27;;
7833;SDS011;3962;42.696;23.354;2024-03-08T10:29:29;12.20;;;11.70;;
7833;SDS011;3962;42.696;23.354;2024-03-08T10:31:57;13.83;;;13.23;;
7833;SDS011;3962;42.696;23.354;2024-03-08T10:34:25;13.83;;;13.23;;
7833;SDS011;3962;42.696;23.354;2024-03-08T10:36:53;12.77;;;12.27;;
7833;SDS011;3962;42.696;23.354;2024-03-08T10:39:29;12.53;;;12.03;;
7833;SDS011;3962;42.696;23.354;2024-03-08T10:42:04;14.27;;;13.67;;
7833;SDS011;3962;42.696;23.354;2024-03-08T10:44:39;14.03;;;13.43;;
7833;SDS011;3962;42.696;23.354;2024-03-08T10:47:13;15.53;;;14.83;;
7833;SDS011;3962;42.696;23.354;2024-03-08T10:49:47;13.83;;;13.23;;
7833;SDS011;3962;42.696;23.354;2024-03-08T10:52:22;14.60;;;13.93;;
7833;SDS011;3962;42.696;23.354;2024-03-08T10:54:50;12.50;;;11.97;;
7833;SDS011;3962;42.696;23.354;2024-03-08T10:57:19;13.43;;;12.83;;
7833;SDS011;3962;42.696;23.354;2024-03-08T10:59:49;13.00;;;12.40;;
7833;SDS011;3962;42.696;23.354;2024-03-08T11:02:17;12.87;;;12.37;;
7833;SDS011;3962;42.696;23.354;2024-03-08T11:04:48;12.63;;;12.13;;
7833;SDS011;3962;42.696;23.354;2024-03-08T11:07:17;13.43;;;12.83;;
7833;SDS011;3962;42.696;23.354;2024-03-08T11:09:48;13.43;;;12.83;;
7833;SDS011;3962;42.696;23.354;2024-03-08T11:12:19;14.13;;;13.50;;
7833;SDS011;3962;42.696;23.354;2024-03-08T11:14:51;13.70;;;13.10;;
7833;SDS011;3962;42.696;23.354;2024-03-08T11:17:25;14.70;;;14.10;;
7833;SDS011;3962;42.696;23.354;2024-03-08T11:20:08;14.27;;;13.67;;
7833;SDS011;3962;42.696;23.354;2024-03-08T11:22:40;13.37;;;12.77;;
7833;SDS011;3962;42.696;23.354;2024-03-08T11:28:07;12.47;;;11.97;;
7833;SDS011;3962;42.696;23.354;2024-03-08T11:30:43;13.90;;;13.30;;
7833;SDS011;3962;42.696;23.354;2024-03-08T11:33:12;14.03;;;13.43;;
7833;SDS011;3962;42.696;23.354;2024-03-08T11:35:41;12.67;;;12.17;;
7833;SDS011;3962;42.696;23.354;2024-03-08T11:38:11;12.60;;;12.10;;
7833;SDS011;3962;42.696;23.354;2024-03-08T11:40:41;13.13;;;12.53;;
7833;SDS011;3962;42.696;23.354;2024-03-08T11:43:08;12.67;;;12.07;;
7833;SDS011;3962;42.696;23.354;2024-03-08T11:45:36;14.13;;;13.50;;
7833;SDS011;3962;42.696;23.354;2024-03-08T11:48:03;13.13;;;12.57;;
7833;SDS011;3962;42.696;23.354;2024-03-08T11:50:30;12.77;;;12.27;;
7833;SDS011;3962;42.696;23.354;2024-03-08T11:53:02;13.07;;;12.47;;
7833;SDS011;3962;42.696;23.354;2024-03-08T11:55:30;12.70;;;12.20;;
7833;SDS011;3962;42.696;23.354;2024-03-08T11:58:05;14.63;;;14.03;;
7833;SDS011;3962;42.696;23.354;2024-03-08T12:00:36;13.53;;;12.93;;
7833;SDS011;3962;42.696;23.354;2024-03-08T12:03:06;13.50;;;12.90;;
7833;SDS011;3962;42.696;23.354;2024-03-08T12:05:36;12.77;;;12.27;;
7833;SDS011;3962;42.696;23.354;2024-03-08T12:08:03;11.23;;;10.73;;
7833;SDS011;3962;42.696;23.354;2024-03-08T12:10:32;13.40;;;12.80;;
7833;SDS011;3962;42.696;23.354;2024-03-08T12:13:00;12.13;;;11.63;;
7833;SDS011;3962;42.696;23.354;2024-03-08T12:15:29;12.70;;;12.20;;
7833;SDS011;3962;42.696;23.354;2024-03-08T12:17:59;13.57;;;12.97;;
7833;SDS011;3962;42.696;23.354;2024-03-08T12:20:27;12.97;;;12.40;;
7833;SDS011;3962;42.696;23.354;2024-03-08T12:22:56;13.10;;;12.50;;
7833;SDS011;3962;42.696;23.354;2024-03-08T12:25:25;14.40;;;13.70;;
7833;SDS011;3962;42.696;23.354;2024-03-08T12:27:53;12.20;;;11.67;;
7833;SDS011;3962;42.696;23.354;2024-03-08T12:30:22;13.60;;;13.00;;
7833;SDS011;3962;42.696;23.354;2024-03-08T12:32:54;13.30;;;12.70;;
7833;SDS011;3962;42.696;23.354;2024-03-08T12:35:23;12.30;;;11.80;;
7833;SDS011;3962;42.696;23.354;2024-03-08T12:37:52;12.57;;;12.07;;
7833;SDS011;3962;42.696;23.354;2024-03-08T12:40:25;13.63;;;13.03;;
7833;SDS011;3962;42.696;23.354;2024-03-08T12:42:53;14.27;;;13.67;;
7833;SDS011;3962;42.696;23.354;2024-03-08T12:45:21;12.67;;;12.17;;
7833;SDS011;3962;42.696;23.354;2024-03-08T12:47:49;13.50;;;12.90;;
7833;SDS011;3962;42.696;23.354;2024-03-08T12:50:17;12.47;;;11.97;;
7833;SDS011;3962;42.696;23.354;2024-03-08T12:52:45;13.60;;;13.00;;
7833;SDS011;3962;42.696;23.354;2024-03-08T12:55:11;12.80;;;12.23;;
7833;SDS011;3962;42.696;23.354;2024-03-08T12:57:39;11.87;;;11.37;;
7833;SDS011;3962;42.696;23.354;2024-03-08T13:00:06;13.00;;;12.40;;
7833;SDS011;3962;42.696;23.354;2024-03-08T13:02:38;14.10;;;13.50;;
7833;SDS011;3962;42.696;23.354;2024-03-08T13:05:07;12.50;;;12.00;;
7833;SDS011;3962;42.696;23.354;2024-03-08T13:07:40;14.60;;;13.97;;
7833;SDS011;3962;42.696;23.354;2024-03-08T13:10:11;12.20;;;11.70;;
7833;SDS011;3962;42.696;23.354;2024-03-08T13:12:39;13.37;;;12.77;;
7833;SDS011;3962;42.696;23.354;2024-03-08T13:15:07;12.57;;;11.97;;
7833;SDS011;3962;42.696;23.354;2024-03-08T13:17:36;13.80;;;13.20;;
7833;SDS011;3962;42.696;23.354;2024-03-08T13:20:06;14.20;;;13.60;;
7833;SDS011;3962;42.696;23.354;2024-03-08T13:22:34;12.33;;;11.83;;
7833;SDS011;3962;42.696;23.354;2024-03-08T13:25:02;12.80;;;12.30;;
7833;SDS011;3962;42.696;23.354;2024-03-08T13:27:30;14.00;;;13.40;;
7833;SDS011;3962;42.696;23.354;2024-03-08T13:29:57;14.77;;;14.17;;
7833;SDS011;3962;42.696;23.354;2024-03-08T13:32:24;13.93;;;13.33;;
7833;SDS011;3962;42.696;23.354;2024-03-08T13:34:51;14.10;;;13.50;;
7833;SDS011;3962;42.696;23.354;2024-03-08T13:37:19;13.43;;;12.83;;
7833;SDS011;3962;42.696;23.354;2024-03-08T13:39:46;12.57;;;12.07;;
7833;SDS011;3962;42.696;23.354;2024-03-08T13:42:15;12.93;;;12.33;;
7833;SDS011;3962;42.696;23.354;2024-03-08T13:44:45;12.50;;;12.00;;
7833;SDS011;3962;42.696;23.354;2024-03-08T13:47:13;12.57;;;12.07;;
7833;SDS011;3962;42.696;23.354;2024-03-08T13:49:40;13.63;;;13.03;;
7833;SDS011;3962;42.696;23.354;2024-03-08T13:52:08;12.97;;;12.43;;
7833;SDS011;3962;42.696;23.354;2024-03-08T13:54:35;13.73;;;13.13;;
7833;SDS011;3962;42.696;23.354;2024-03-08T13:57:03;14.40;;;13.80;;
7833;SDS011;3962;42.696;23.354;2024-03-08T13:59:33;14.77;;;14.13;;
7833;SDS011;3962;42.696;23.354;2024-03-08T14:02:01;15.03;;;14.27;;
7833;SDS011;3962;42.696;23.354;2024-03-08T14:04:28;14.17;;;13.57;;
7833;SDS011;3962;42.696;23.354;2024-03-08T14:06:55;15.10;;;14.40;;
7833;SDS011;3962;42.696;23.354;2024-03-08T14:09:26;14.07;;;13.37;;
7833;SDS011;3962;42.696;23.354;2024-03-08T14:11:54;13.53;;;12.93;;
7833;SDS011;3962;42.696;23.354;2024-03-08T14:14:21;13.33;;;12.73;;
7833;SDS011;3962;42.696;23.354;2024-03-08T14:16:50;13.37;;;12.77;;
7833;SDS011;3962;42.696;23.354;2024-03-08T14:19:20;13.40;;;12.80;;
7833;SDS011;3962;42.696;23.354;2024-03-08T14:21:47;13.20;;;12.60;;
7833;SDS011;3962;42.696;23.354;2024-03-08T14:24:14;12.15;;;11.63;;
7833;SDS011;3962;42.696;23.354;2024-03-08T14:26:42;15.67;;;14.97;;
7833;SDS011;3962;42.696;23.354;2024-03-08T14:29:09;13.00;;;12.40;;
7833;SDS011;3962;42.696;23.354;2024-03-08T14:31:36;14.50;;;13.90;;
7833;SDS011;3962;42.696;23.354;2024-03-08T14:34:04;16.70;;;15.93;;
7833;SDS011;3962;42.696;23.354;2024-03-08T14:36:32;14.10;;;13.50;;
7833;SDS011;3962;42.696;23.354;2024-03-08T14:38:59;14.60;;;14.00;;
7833;SDS011;3962;42.696;23.354;2024-03-08T14:41:26;14.27;;;13.67;;
7833;SDS011;3962;42.696;23.354;2024-03-08T14:43:53;16.20;;;15.50;;
7833;SDS011;3962;42.696;23.354;2024-03-08T14:46:20;14.87;;;14.27;;
7833;SDS011;3962;42.696;23.354;2024-03-08T14:48:48;14.90;;;14.30;;
7833;SDS011;3962;42.696;23.354;2024-03-08T14:51:18;15.13;;;14.50;;